createdAt,value
2019-05-28T00:02:08.365Z,12.45
2019-05-28T00:07:11.440Z,12.93
2019-05-28T00:12:14.499Z,12.85
2019-05-28T00:17:17.740Z,12.65
2019-05-28T00:22:20.850Z,11.85
2019-05-28T00:27:23.947Z,12.85
2019-05-28T00:32:27.124Z,14.35
2019-05-28T00:37:30.109Z,17.27
2019-05-28T00:42:33.274Z,16.40
2019-05-28T00:47:36.339Z,16.67
2019-05-28T00:52:39.295Z,16.48
2019-05-28T00:57:46.689Z,17.05
2019-05-28T01:02:49.956Z,18.46
2019-05-28T01:07:53.060Z,16.77
2019-05-28T01:12:56.646Z,17.67
2019-05-28T01:18:00.271Z,17.45
2019-05-28T01:23:03.344Z,18.45
2019-05-28T01:28:07.063Z,17.25
2019-05-28T01:33:10.101Z,17.87
2019-05-28T01:38:13.184Z,17.37
2019-05-28T01:43:16.159Z,17.35
2019-05-28T01:48:19.269Z,18.80
2019-05-28T01:53:22.473Z,18.80
2019-05-28T01:58:25.538Z,19.12
2019-05-28T02:03:28.668Z,19.37
2019-05-28T02:08:31.847Z,17.48
2019-05-28T02:13:35.005Z,17.77
2019-05-28T02:18:38.146Z,16.53
2019-05-28T02:23:41.112Z,17.20
2019-05-28T02:28:44.095Z,15.57
2019-05-28T02:33:47.190Z,16.02
2019-05-28T02:38:50.283Z,14.65
2019-05-28T02:43:53.363Z,13.78
2019-05-28T02:48:56.514Z,14.35
2019-05-28T02:54:01.031Z,14.33
2019-05-28T02:59:04.275Z,12.98
2019-05-28T03:04:09.571Z,12.90
2019-05-28T03:09:12.722Z,13.70
2019-05-28T03:14:15.801Z,11.83
2019-05-28T03:19:19.640Z,11.90
2019-05-28T03:24:23.741Z,13.22
2019-05-28T03:29:26.702Z,13.22
2019-05-28T03:34:29.755Z,12.70
2019-05-28T03:39:34.468Z,12.98
2019-05-28T03:44:37.544Z,11.83
2019-05-28T03:49:40.669Z,11.10
2019-05-28T03:54:43.695Z,11.53
2019-05-28T03:59:46.766Z,12.25
2019-05-28T04:04:49.830Z,13.35
2019-05-28T04:09:52.932Z,12.98
2019-05-28T04:14:56.103Z,12.55
2019-05-28T04:19:59.264Z,12.75
2019-05-28T04:25:02.632Z,10.58
2019-05-28T04:30:06.159Z,9.28
2019-05-28T04:35:09.750Z,10.23
2019-05-28T04:40:12.895Z,9.43
2019-05-28T04:45:16.255Z,9.35
2019-05-28T04:50:19.398Z,8.53
2019-05-28T04:55:22.383Z,7.87
2019-05-28T05:00:25.635Z,8.63
2019-05-28T05:05:28.728Z,8.65
2019-05-28T05:10:31.942Z,10.50
2019-05-28T05:15:34.937Z,10.63
2019-05-28T05:20:38.054Z,10.70
2019-05-28T05:25:41.273Z,10.68
2019-05-28T05:30:44.492Z,10.15
2019-05-28T05:35:47.784Z,10.80
2019-05-28T05:40:50.991Z,8.43
2019-05-28T05:45:54.312Z,7.78
2019-05-28T05:50:57.636Z,8.08
2019-05-28T05:56:00.854Z,7.58
2019-05-28T06:01:04.098Z,8.88
2019-05-28T06:06:07.263Z,6.67
2019-05-28T06:11:10.239Z,7.70
2019-05-28T06:16:13.334Z,6.78
2019-05-28T06:21:18.901Z,7.20
2019-05-28T06:26:21.745Z,5.27
2019-05-28T06:31:25.048Z,5.40
2019-05-28T06:36:28.296Z,4.97
2019-05-28T06:41:31.485Z,5.12
2019-05-28T06:46:34.486Z,6.10
2019-05-28T06:51:37.701Z,5.20
2019-05-28T06:56:41.100Z,5.05
2019-05-28T07:01:44.191Z,5.22
2019-05-28T07:06:47.329Z,4.70
2019-05-28T07:11:50.344Z,4.03
2019-05-28T07:16:53.962Z,5.28
2019-05-28T07:21:57.694Z,4.67
2019-05-28T07:27:01.177Z,4.65
2019-05-28T07:32:04.274Z,4.22
2019-05-28T07:37:07.613Z,4.10
2019-05-28T07:42:10.684Z,4.33
2019-05-28T07:47:13.935Z,3.98
2019-05-28T07:52:17.168Z,3.85
2019-05-28T07:57:20.472Z,4.55
2019-05-28T08:02:23.793Z,3.92
2019-05-28T08:07:27.218Z,3.70
2019-05-28T08:12:30.509Z,3.72
2019-05-28T08:17:33.748Z,4.00
2019-05-28T08:22:42.577Z,3.65
2019-05-28T08:27:42.333Z,3.90
2019-05-28T08:32:45.429Z,3.70
2019-05-28T08:37:50.036Z,4.22
2019-05-28T08:42:53.180Z,3.75
2019-05-28T08:47:56.408Z,3.82
2019-05-28T08:52:59.774Z,4.20
2019-05-28T08:58:03.015Z,4.58
2019-05-28T09:03:06.499Z,5.85
2019-05-28T09:08:09.700Z,4.87
2019-05-28T09:13:13.269Z,5.90
2019-05-28T09:18:16.435Z,6.58
2019-05-28T09:23:22.158Z,8.52
2019-05-28T09:28:30.732Z,6.42
2019-05-28T09:33:30.524Z,7.20
2019-05-28T09:38:33.510Z,7.10
2019-05-28T09:43:36.634Z,7.77
2019-05-28T09:48:39.660Z,6.42
2019-05-28T09:53:42.901Z,7.05
2019-05-28T09:58:46.111Z,6.05
2019-05-28T10:03:49.174Z,6.28
2019-05-28T10:08:52.344Z,5.75
2019-05-28T10:13:55.432Z,5.95
2019-05-28T10:18:58.855Z,6.33
2019-05-28T10:24:02.052Z,6.00
2019-05-28T10:29:05.101Z,6.37
2019-05-28T10:34:08.226Z,7.10
2019-05-28T10:39:11.431Z,6.45
2019-05-28T10:44:14.501Z,6.42
2019-05-28T10:49:17.574Z,6.58
2019-05-28T10:54:20.663Z,6.58
2019-05-28T10:59:24.128Z,8.80
2019-05-28T11:04:27.087Z,8.78
2019-05-28T11:09:30.084Z,10.25
2019-05-28T11:14:33.142Z,9.98
2019-05-28T11:19:36.278Z,9.13
2019-05-28T11:24:39.380Z,8.23
2019-05-28T11:29:42.451Z,6.75
2019-05-28T11:34:45.604Z,5.70
2019-05-28T11:39:48.694Z,5.00
2019-05-28T11:44:51.751Z,4.50
2019-05-28T11:49:54.927Z,4.28
2019-05-28T11:54:57.915Z,3.60
2019-05-28T12:00:00.943Z,3.40
2019-05-28T12:05:05.601Z,4.10
2019-05-28T12:10:11.748Z,4.13
2019-05-28T12:15:17.525Z,4.12
2019-05-28T12:20:21.607Z,4.40
2019-05-28T12:25:25.556Z,3.55
2019-05-28T12:30:29.098Z,3.77
2019-05-28T12:35:32.049Z,4.00
2019-05-28T12:40:47.299Z,3.33
2019-05-28T12:45:39.899Z,4.97
2019-05-28T12:50:42.901Z,4.60
2019-05-28T12:55:45.885Z,5.50
2019-05-28T13:00:48.873Z,5.43
2019-05-28T13:05:52.367Z,4.92
2019-05-28T13:10:55.370Z,4.87
2019-05-28T13:15:58.350Z,5.22
2019-05-28T13:21:01.379Z,3.60
2019-05-28T13:26:04.512Z,2.50
2019-05-28T13:31:08.651Z,2.72
2019-05-28T13:36:11.650Z,2.12
2019-05-28T13:41:14.639Z,1.80
2019-05-28T13:46:17.649Z,1.70
2019-05-28T13:51:20.579Z,1.55
2019-05-28T13:56:23.603Z,1.72
2019-05-28T14:01:26.598Z,1.55
2019-05-28T14:06:29.774Z,1.70
2019-05-28T14:11:32.793Z,2.08
2019-05-28T14:16:35.849Z,2.08
2019-05-28T14:21:38.844Z,2.47
2019-05-28T14:26:41.848Z,2.20
2019-05-28T14:31:44.866Z,2.05
2019-05-28T14:36:47.943Z,1.80
2019-05-28T14:41:50.941Z,2.27
2019-05-28T14:46:53.977Z,2.33
2019-05-28T14:51:56.982Z,2.17
2019-05-28T14:57:00.039Z,2.05
2019-05-28T15:02:03.197Z,1.77
2019-05-28T15:07:06.266Z,2.75
2019-05-28T15:12:09.225Z,1.90
2019-05-28T15:17:12.303Z,2.02
2019-05-28T15:22:15.313Z,2.10
2019-05-28T15:27:18.440Z,2.37
2019-05-28T15:32:21.524Z,1.82
2019-05-28T15:37:24.591Z,1.80
2019-05-28T15:42:27.602Z,2.30
2019-05-28T15:47:30.611Z,1.70
2019-05-28T15:52:33.648Z,2.02
2019-05-28T15:57:36.637Z,2.37
2019-05-28T16:02:39.654Z,1.72
2019-05-28T16:07:42.625Z,1.67
2019-05-28T16:12:45.626Z,1.67
2019-05-28T16:17:48.684Z,2.02
2019-05-28T16:22:52.589Z,2.00
2019-05-28T16:27:55.673Z,1.62
2019-05-28T16:32:58.676Z,1.50
2019-05-28T16:38:01.993Z,0.95
2019-05-28T16:43:05.170Z,1.12
2019-05-28T16:48:08.434Z,0.95
2019-05-28T16:53:11.508Z,1.20
2019-05-28T16:58:14.610Z,1.23
2019-05-28T17:03:17.747Z,1.20
2019-05-28T17:08:20.892Z,1.50
2019-05-28T17:13:24.644Z,1.98
2019-05-28T17:18:27.909Z,1.45
2019-05-28T17:23:31.267Z,1.32
2019-05-28T17:28:34.342Z,1.42
2019-05-28T17:33:37.388Z,1.17
2019-05-28T17:38:40.492Z,1.00
2019-05-28T17:43:43.529Z,1.42
2019-05-28T17:48:46.631Z,1.30
2019-05-28T17:53:49.696Z,1.25
2019-05-28T17:58:53.168Z,1.00
2019-05-28T18:03:56.566Z,1.07
2019-05-28T18:08:59.616Z,1.00
2019-05-28T18:14:02.985Z,1.10
2019-05-28T18:19:06.094Z,2.55
2019-05-28T18:24:09.200Z,2.27
2019-05-28T18:29:12.346Z,2.05
2019-05-28T18:34:15.552Z,2.15
2019-05-28T18:39:18.855Z,2.15
2019-05-28T18:44:22.021Z,2.30
2019-05-28T18:49:25.201Z,2.42
2019-05-28T18:54:29.526Z,2.47
2019-05-28T18:59:35.333Z,2.10
2019-05-28T19:04:38.239Z,2.13
2019-05-28T19:09:47.073Z,1.87
2019-05-28T19:14:50.150Z,2.02
2019-05-28T19:19:53.239Z,2.80
2019-05-28T19:24:57.413Z,2.52
2019-05-28T19:30:01.093Z,2.70
2019-05-28T19:35:07.786Z,3.20
2019-05-28T19:45:12.640Z,3.00
2019-05-28T19:50:15.894Z,3.40
2019-05-28T19:55:19.022Z,3.37
2019-05-28T20:00:22.457Z,3.45
2019-05-28T20:05:25.600Z,3.27
2019-05-28T20:10:28.933Z,3.75
2019-05-28T20:15:32.173Z,3.87
2019-05-28T20:20:35.810Z,3.65
2019-05-28T20:25:39.195Z,3.40
2019-05-28T20:30:42.608Z,4.45
2019-05-28T20:35:45.680Z,3.98
2019-05-28T20:40:48.925Z,4.58
2019-05-28T20:45:52.157Z,4.33
2019-05-28T20:51:07.414Z,5.05
2019-05-28T20:56:00.248Z,5.20
2019-05-28T21:01:03.216Z,5.25
2019-05-28T21:06:06.385Z,4.42
2019-05-28T21:11:09.487Z,6.05
2019-05-28T21:16:12.560Z,6.47
2019-05-28T21:21:15.696Z,6.25
2019-05-28T21:26:18.776Z,6.08
2019-05-28T21:31:21.884Z,6.20
2019-05-28T21:36:25.073Z,6.08
2019-05-28T21:41:28.171Z,6.00
2019-05-28T21:46:31.445Z,5.25
2019-05-28T21:51:36.236Z,6.30
2019-05-28T21:56:39.321Z,5.72
2019-05-28T22:01:42.533Z,5.08
2019-05-28T22:06:45.771Z,5.80
2019-05-28T22:11:48.830Z,6.25
2019-05-28T22:16:52.210Z,5.78
2019-05-28T22:21:56.305Z,6.70
2019-05-28T22:27:00.410Z,6.70
2019-05-28T22:32:05.318Z,7.22
2019-05-28T22:37:08.666Z,7.37
2019-05-28T22:42:12.187Z,6.65
2019-05-28T22:47:15.335Z,6.50
2019-05-28T22:52:18.470Z,6.15
2019-05-28T22:57:21.520Z,6.67
2019-05-28T23:02:24.659Z,6.28
2019-05-28T23:07:27.771Z,6.37
2019-05-28T23:12:30.913Z,6.62
2019-05-28T23:17:34.670Z,6.96
2019-05-28T23:22:38.039Z,5.92
2019-05-28T23:27:41.263Z,5.65
2019-05-28T23:32:44.325Z,5.95
2019-05-28T23:37:47.495Z,5.85
2019-05-28T23:42:52.991Z,5.97
2019-05-28T23:47:56.107Z,6.00
2019-05-28T23:52:59.179Z,5.37
2019-05-28T23:58:02.342Z,5.60
